Time;durP1;ratioP1;P1;durP2;ratioP2;P2;SDS_P1;SDS_P2;PMS_P1;PMS_P2;Temp;Humidity;BMP_temperature;BMP_pressure;BME280_temperature;BME280_humidity;BME280_pressure;Samples;Min_cycle;Max_cycle;Signal;HPM_P1;HPM_P2
2023/08/11 00:02:15;;;;;;;12.73;8.47;;;;;;;;;;5054036;28;20021;-29
2023/08/11 00:04:40;;;;;;;11.25;8.10;;;;;;;;;;5053955;28;20282;-29
2023/08/11 00:07:05;;;;;;;13.53;8.57;;;;;;;;;;5054090;28;20098;-29
2023/08/11 00:09:30;;;;;;;12.57;8.20;;;;;;;;;;5054076;28;20057;-30
2023/08/11 00:11:55;;;;;;;14.02;7.88;;;;;;;;;;5053731;28;20370;-29
2023/08/11 00:14:21;;;;;;;10.93;7.97;;;;;;;;;;5054308;28;20028;-29
2023/08/11 00:16:46;;;;;;;17.23;8.17;;;;;;;;;;5054293;28;20255;-29
2023/08/11 00:19:11;;;;;;;16.97;8.20;;;;;;;;;;5054010;28;20723;-29
2023/08/11 00:21:36;;;;;;;12.98;7.82;;;;;;;;;;5054177;28;20021;-29
2023/08/11 00:24:01;;;;;;;14.87;8.17;;;;;;;;;;5053596;28;20376;-29
2023/08/11 00:26:27;;;;;;;10.90;8.00;;;;;;;;;;5054415;28;20243;-29
2023/08/11 00:28:52;;;;;;;12.03;7.77;;;;;;;;;;5054079;28;20259;-29
2023/08/11 00:31:17;;;;;;;13.30;8.10;;;;;;;;;;5053988;28;20361;-29
2023/08/11 00:33:46;;;;;;;11.73;7.57;;;;;;;;;;5053433;28;20868;-29
2023/08/11 00:36:12;;;;;;;14.85;7.78;;;;;;;;;;5053692;28;20473;-29
2023/08/11 00:38:40;;;;;;;11.85;8.10;;;;;;;;;;5053653;28;20100;-27
2023/08/11 00:41:06;;;;;;;11.10;7.60;;;;;;;;;;5053388;28;20021;-29
2023/08/11 00:43:31;;;;;;;12.25;7.85;;;;;;;;;;5053676;28;20021;-29
2023/08/11 00:45:56;;;;;;;12.32;8.23;;;;;;;;;;5053605;28;20062;-29
2023/08/11 00:48:22;;;;;;;12.13;7.93;;;;;;;;;;5053319;28;20028;-29
2023/08/11 00:50:47;;;;;;;12.68;8.02;;;;;;;;;;5053263;28;20021;-29
2023/08/11 00:53:13;;;;;;;10.18;8.10;;;;;;;;;;5053407;28;20049;-29
2023/08/11 00:55:39;;;;;;;12.30;8.23;;;;;;;;;;5058500;28;20043;-30
2023/08/11 00:58:05;;;;;;;12.93;7.78;;;;;;;;;;5059925;28;20017;-29
2023/08/11 01:00:30;;;;;;;12.45;8.18;;;;;;;;;;5059867;28;20062;-29
2023/08/11 01:02:55;;;;;;;12.50;8.40;;;;;;;;;;5059837;28;20353;-30
2023/08/11 01:05:21;;;;;;;14.48;8.50;;;;;;;;;;5058460;28;20279;-29
2023/08/11 01:08:12;;;;;;;13.27;8.48;;;;;;;;;;5060054;28;20025;-29
2023/08/11 01:10:37;;;;;;;13.43;8.45;;;;;;;;;;5058734;28;20033;-29
2023/08/11 01:13:17;;;;;;;13.18;7.82;;;;;;;;;;5059895;28;20025;-29
2023/08/11 01:15:44;;;;;;;13.45;8.02;;;;;;;;;;5060027;28;20087;-30
2023/08/11 01:18:11;;;;;;;10.32;7.60;;;;;;;;;;5059721;28;20025;-29
2023/08/11 01:20:36;;;;;;;13.13;7.63;;;;;;;;;;5059934;28;20364;-29
2023/08/11 01:23:02;;;;;;;11.00;7.85;;;;;;;;;;5059678;28;20031;-29
2023/08/11 01:25:27;;;;;;;11.70;8.00;;;;;;;;;;5059648;28;20025;-29
2023/08/11 01:27:54;;;;;;;13.52;7.95;;;;;;;;;;5060114;28;20017;-27
2023/08/11 01:30:19;;;;;;;16.27;7.70;;;;;;;;;;5059546;28;20059;-28
2023/08/11 01:32:47;;;;;;;10.60;7.80;;;;;;;;;;5059793;28;20049;-29
2023/08/11 01:35:12;;;;;;;11.65;8.02;;;;;;;;;;5060045;28;20021;-29
2023/08/11 01:37:38;;;;;;;16.30;8.10;;;;;;;;;;5059581;28;20349;-29
2023/08/11 01:40:10;;;;;;;11.03;7.50;;;;;;;;;;5059997;28;20275;-28
2023/08/11 01:42:35;;;;;;;14.03;8.00;;;;;;;;;;5059731;28;20385;-28
2023/08/11 01:45:00;;;;;;;12.98;7.75;;;;;;;;;;5059434;28;20260;-28
2023/08/11 01:47:25;;;;;;;12.15;7.50;;;;;;;;;;5059685;28;20020;-28
2023/08/11 01:49:51;;;;;;;15.73;7.27;;;;;;;;;;5059437;28;20447;-28
2023/08/11 01:52:16;;;;;;;11.30;7.43;;;;;;;;;;5059541;28;20362;-29
2023/08/11 01:54:42;;;;;;;12.40;7.25;;;;;;;;;;5059384;28;20021;-28
2023/08/11 01:57:08;;;;;;;11.15;7.18;;;;;;;;;;5059613;28;20456;-28
2023/08/11 01:59:33;;;;;;;13.23;7.72;;;;;;;;;;5059124;28;20507;-29
2023/08/11 02:01:58;;;;;;;15.40;7.90;;;;;;;;;;5059891;28;20017;-29
2023/08/11 02:04:23;;;;;;;9.93;7.73;;;;;;;;;;5059301;28;20259;-28
2023/08/11 02:06:49;;;;;;;11.98;7.45;;;;;;;;;;5056600;28;20021;-29
2023/08/11 02:09:14;;;;;;;10.68;7.30;;;;;;;;;;5056004;28;20423;-28
2023/08/11 02:11:39;;;;;;;10.93;7.30;;;;;;;;;;5055886;28;20048;-29
2023/08/11 02:14:05;;;;;;;9.63;6.70;;;;;;;;;;5056471;28;20040;-28
2023/08/11 02:16:30;;;;;;;11.05;6.88;;;;;;;;;;5055964;28;20036;-28
2023/08/11 02:18:56;;;;;;;10.07;6.90;;;;;;;;;;5055867;28;20017;-29
2023/08/11 02:21:21;;;;;;;13.30;6.90;;;;;;;;;;5056128;28;20025;-28
2023/08/11 02:23:46;;;;;;;10.80;6.83;;;;;;;;;;5055834;28;20024;-29
2023/08/11 02:26:12;;;;;;;13.60;6.87;;;;;;;;;;5056346;28;20255;-29
2023/08/11 02:28:38;;;;;;;12.30;6.85;;;;;;;;;;5054298;28;20306;-29
2023/08/11 02:31:03;;;;;;;8.95;7.05;;;;;;;;;;5055828;28;20037;-34
2023/08/11 02:33:28;;;;;;;13.87;7.07;;;;;;;;;;5055584;28;20031;-29
2023/08/11 02:35:53;;;;;;;9.07;6.57;;;;;;;;;;5055608;28;20105;-29
2023/08/11 02:38:19;;;;;;;13.35;6.85;;;;;;;;;;5055493;28;20266;-28
2023/08/11 02:40:45;;;;;;;11.48;7.10;;;;;;;;;;5055481;28;20048;-29
2023/08/11 02:43:10;;;;;;;11.55;6.70;;;;;;;;;;5055444;28;20028;-28
2023/08/11 02:45:35;;;;;;;9.03;7.13;;;;;;;;;;5055388;28;20029;-28
2023/08/11 02:48:01;;;;;;;10.63;6.88;;;;;;;;;;5055679;28;20265;-28
2023/08/11 02:50:26;;;;;;;12.90;6.78;;;;;;;;;;5055627;28;20025;-28
2023/08/11 02:52:51;;;;;;;11.40;6.80;;;;;;;;;;5055235;28;20024;-28
2023/08/11 02:55:16;;;;;;;12.80;6.90;;;;;;;;;;5055811;28;20266;-28
2023/08/11 02:57:42;;;;;;;9.27;7.00;;;;;;;;;;5055182;28;20582;-28
2023/08/11 03:00:13;;;;;;;10.53;6.90;;;;;;;;;;5053875;28;20401;-29
2023/08/11 03:02:41;;;;;;;11.25;6.65;;;;;;;;;;5055373;28;20268;-28
2023/08/11 03:05:07;;;;;;;10.85;6.80;;;;;;;;;;5055007;28;20491;-28
2023/08/11 03:07:33;;;;;;;12.95;7.32;;;;;;;;;;5055237;28;20033;-28
2023/08/11 03:09:59;;;;;;;10.38;7.15;;;;;;;;;;5055307;28;20049;-28
2023/08/11 03:12:24;;;;;;;12.07;7.07;;;;;;;;;;5054814;28;20397;-28
2023/08/11 03:14:49;;;;;;;12.43;7.23;;;;;;;;;;5054830;28;20267;-27
2023/08/11 03:17:14;;;;;;;8.63;6.82;;;;;;;;;;5054294;28;20255;-28
2023/08/11 03:19:40;;;;;;;9.40;7.07;;;;;;;;;;5054866;28;20070;-27
2023/08/11 03:22:05;;;;;;;10.05;7.20;;;;;;;;;;5055016;28;20028;-29
2023/08/11 03:24:30;;;;;;;12.43;7.37;;;;;;;;;;5054689;28;20021;-28
2023/08/11 03:26:55;;;;;;;11.00;7.63;;;;;;;;;;5054601;28;20738;-28
2023/08/11 03:29:20;;;;;;;11.13;7.47;;;;;;;;;;5054834;28;20252;-28
2023/08/11 03:31:46;;;;;;;11.32;7.43;;;;;;;;;;5054402;28;20020;-28
2023/08/11 03:34:11;;;;;;;9.73;7.50;;;;;;;;;;5054513;28;20115;-28
2023/08/11 03:36:36;;;;;;;9.53;7.70;;;;;;;;;;5054422;28;20268;-28
2023/08/11 03:39:02;;;;;;;13.10;7.78;;;;;;;;;;5054881;28;20248;-28
2023/08/11 03:41:27;;;;;;;11.77;7.47;;;;;;;;;;5054610;28;20021;-27
2023/08/11 03:43:52;;;;;;;11.45;7.93;;;;;;;;;;5054530;28;20098;-29
2023/08/11 03:46:17;;;;;;;10.33;8.20;;;;;;;;;;5054286;28;20017;-28
2023/08/11 03:48:42;;;;;;;10.87;7.87;;;;;;;;;;5054211;28;20090;-28
2023/08/11 03:51:08;;;;;;;12.60;8.90;;;;;;;;;;5054167;28;20029;-28
2023/08/11 03:53:33;;;;;;;12.13;8.63;;;;;;;;;;5054374;28;20275;-28
2023/08/11 03:55:58;;;;;;;12.80;8.75;;;;;;;;;;5054105;28;20013;-28
2023/08/11 03:58:24;;;;;;;15.37;8.80;;;;;;;;;;5054640;28;20028;-28
2023/08/11 04:00:49;;;;;;;14.15;8.77;;;;;;;;;;5053958;28;20127;-28
2023/08/11 04:03:14;;;;;;;11.73;8.90;;;;;;;;;;5054450;28;20057;-28
2023/08/11 04:05:40;;;;;;;14.98;9.38;;;;;;;;;;5054206;28;20266;-28
2023/08/11 04:08:05;;;;;;;14.93;8.73;;;;;;;;;;5054137;28;20137;-28
2023/08/11 04:10:31;;;;;;;14.37;8.93;;;;;;;;;;5053618;28;20044;-27
2023/08/11 04:12:56;;;;;;;14.30;9.18;;;;;;;;;;5053715;28;20287;-28
2023/08/11 04:15:21;;;;;;;13.33;9.20;;;;;;;;;;5053787;28;20025;-28
2023/08/11 04:17:46;;;;;;;13.57;9.37;;;;;;;;;;5054264;28;20287;-28
2023/08/11 04:20:15;;;;;;;15.40;9.37;;;;;;;;;;5054216;28;20255;-28
2023/08/11 04:22:40;;;;;;;14.43;9.38;;;;;;;;;;5052355;28;20305;-28
2023/08/11 04:25:07;;;;;;;13.27;9.35;;;;;;;;;;5053819;28;20047;-28
2023/08/11 04:27:32;;;;;;;18.90;10.73;;;;;;;;;;5054036;28;20126;-28
2023/08/11 04:29:57;;;;;;;16.15;9.70;;;;;;;;;;5053041;28;20021;-28
2023/08/11 04:32:23;;;;;;;16.97;10.03;;;;;;;;;;5053875;28;20025;-28
2023/08/11 04:34:49;;;;;;;15.10;9.73;;;;;;;;;;5053722;28;20706;-29
2023/08/11 04:37:14;;;;;;;14.75;9.57;;;;;;;;;;5052097;28;20028;-28
2023/08/11 04:39:40;;;;;;;16.50;10.20;;;;;;;;;;5053366;28;20025;-28
2023/08/11 04:42:07;;;;;;;14.48;10.07;;;;;;;;;;5053285;28;20525;-28
2023/08/11 04:44:33;;;;;;;14.52;9.63;;;;;;;;;;5053300;28;20033;-29
2023/08/11 04:46:58;;;;;;;14.77;10.02;;;;;;;;;;5053544;28;20046;-28
2023/08/11 04:49:23;;;;;;;12.60;9.67;;;;;;;;;;5053342;28;20434;-28
2023/08/11 04:51:48;;;;;;;14.27;10.27;;;;;;;;;;5053485;28;20281;-28
2023/08/11 04:54:13;;;;;;;16.57;10.20;;;;;;;;;;5053748;28;20248;-28
2023/08/11 04:56:38;;;;;;;14.75;9.75;;;;;;;;;;5053130;28;20259;-29
2023/08/11 04:59:04;;;;;;;14.43;9.97;;;;;;;;;;5053743;28;20017;-28
2023/08/11 05:01:29;;;;;;;19.37;10.20;;;;;;;;;;5053189;28;20251;-28
2023/08/11 05:03:54;;;;;;;13.63;10.07;;;;;;;;;;5053440;28;20067;-27
2023/08/11 05:06:19;;;;;;;15.30;9.80;;;;;;;;;;5053097;28;20032;-28
2023/08/11 05:08:47;;;;;;;13.60;10.40;;;;;;;;;;5053619;28;20028;-28
2023/08/11 05:11:13;;;;;;;13.55;10.10;;;;;;;;;;5052938;28;20276;-28
2023/08/11 05:13:38;;;;;;;20.83;10.10;;;;;;;;;;5052977;28;20029;-28
2023/08/11 05:16:03;;;;;;;13.95;9.40;;;;;;;;;;5053607;28;20024;-28
2023/08/11 05:18:28;;;;;;;13.82;10.13;;;;;;;;;;5053054;28;20031;-28
2023/08/11 05:20:54;;;;;;;16.98;10.20;;;;;;;;;;5053433;28;20345;-28
2023/08/11 05:23:19;;;;;;;15.70;10.35;;;;;;;;;;5053263;28;20024;-28
2023/08/11 05:25:44;;;;;;;14.87;9.77;;;;;;;;;;5052957;28;20510;-28
2023/08/11 05:28:10;;;;;;;17.10;10.20;;;;;;;;;;5052911;28;20339;-28
2023/08/11 05:30:35;;;;;;;14.75;10.23;;;;;;;;;;5053066;28;20071;-29
2023/08/11 05:33:01;;;;;;;16.17;10.43;;;;;;;;;;5053052;28;20112;-28
2023/08/11 05:35:26;;;;;;;15.37;9.90;;;;;;;;;;5053058;28;20025;-28
2023/08/11 05:37:51;;;;;;;15.02;10.27;;;;;;;;;;5053938;28;20266;-28
2023/08/11 05:40:16;;;;;;;15.47;9.93;;;;;;;;;;5052827;28;20014;-28
2023/08/11 05:42:42;;;;;;;16.70;9.90;;;;;;;;;;5056043;28;20259;-28
2023/08/11 05:45:08;;;;;;;15.45;9.73;;;;;;;;;;5056816;28;20147;-28
2023/08/11 05:47:33;;;;;;;14.70;9.88;;;;;;;;;;5056478;28;20013;-28
2023/08/11 05:49:58;;;;;;;16.65;10.07;;;;;;;;;;5056518;28;20479;-28
2023/08/11 05:52:23;;;;;;;17.20;10.43;;;;;;;;;;5056339;28;20032;-28
2023/08/11 05:54:48;;;;;;;16.50;10.02;;;;;;;;;;5056619;28;20286;-28
2023/08/11 05:57:14;;;;;;;20.10;10.20;;;;;;;;;;5056312;28;20017;-29
2023/08/11 05:59:39;;;;;;;18.60;10.23;;;;;;;;;;5056593;28;20052;-28
2023/08/11 06:02:04;;;;;;;19.67;10.70;;;;;;;;;;5057033;28;20468;-29
2023/08/11 06:04:29;;;;;;;16.50;10.00;;;;;;;;;;5056146;28;20309;-30
2023/08/11 06:06:54;;;;;;;12.90;8.43;;;;;;;;;;5056456;28;20252;-29
2023/08/11 06:09:20;;;;;;;15.47;8.30;;;;;;;;;;5056626;28;20371;-29
2023/08/11 06:11:45;;;;;;;14.43;7.82;;;;;;;;;;5055963;28;20052;-29
2023/08/11 06:14:10;;;;;;;10.93;7.50;;;;;;;;;;5056001;28;20528;-29
2023/08/11 06:16:35;;;;;;;14.15;7.50;;;;;;;;;;5056208;28;20084;-29
2023/08/11 06:19:01;;;;;;;14.50;7.47;;;;;;;;;;5055823;28;20029;-29
2023/08/11 06:21:27;;;;;;;13.55;6.90;;;;;;;;;;5056158;28;20341;-29
2023/08/11 06:23:53;;;;;;;11.68;6.88;;;;;;;;;;5056033;28;20464;-29
2023/08/11 06:26:18;;;;;;;12.93;7.40;;;;;;;;;;5056000;28;20028;-29
2023/08/11 06:28:43;;;;;;;14.80;7.50;;;;;;;;;;5055780;28;20029;-30
2023/08/11 06:31:09;;;;;;;13.73;7.40;;;;;;;;;;5055727;28;20314;-29
2023/08/11 06:33:34;;;;;;;11.98;6.82;;;;;;;;;;5056233;28;20358;-29
2023/08/11 06:35:59;;;;;;;13.83;7.10;;;;;;;;;;5055664;28;20074;-29
2023/08/11 06:38:25;;;;;;;12.20;6.67;;;;;;;;;;5055604;28;20037;-29
2023/08/11 06:40:50;;;;;;;11.10;6.73;;;;;;;;;;5055588;28;20741;-30
2023/08/11 06:43:15;;;;;;;12.52;6.55;;;;;;;;;;5056238;28;20013;-29
2023/08/11 06:45:42;;;;;;;11.50;6.57;;;;;;;;;;5055528;28;20041;-30
2023/08/11 06:48:07;;;;;;;11.05;6.38;;;;;;;;;;5055739;28;20020;-29
2023/08/11 06:50:32;;;;;;;11.90;6.07;;;;;;;;;;5054076;28;20467;-30
2023/08/11 06:52:57;;;;;;;9.77;5.75;;;;;;;;;;5055527;28;20013;-29
2023/08/11 06:55:23;;;;;;;10.17;6.37;;;;;;;;;;5055265;28;20016;-28
2023/08/11 06:57:48;;;;;;;12.77;6.40;;;;;;;;;;5055492;28;20021;-28
2023/08/11 07:00:13;;;;;;;14.97;6.30;;;;;;;;;;5055095;28;20422;-28
2023/08/11 07:02:39;;;;;;;9.75;6.05;;;;;;;;;;5054582;28;20456;-28
2023/08/11 07:05:04;;;;;;;11.90;5.73;;;;;;;;;;5055035;28;20464;-28
2023/08/11 07:07:29;;;;;;;13.40;6.30;;;;;;;;;;5055611;28;20293;-29
2023/08/11 07:09:55;;;;;;;12.30;6.83;;;;;;;;;;5054841;28;20044;-29
2023/08/11 07:12:20;;;;;;;11.30;5.72;;;;;;;;;;5054880;28;20282;-29
2023/08/11 07:14:45;;;;;;;11.17;5.67;;;;;;;;;;5055434;28;20147;-29
2023/08/11 07:17:10;;;;;;;10.00;5.75;;;;;;;;;;5054833;28;20049;-29
2023/08/11 07:19:36;;;;;;;8.77;5.60;;;;;;;;;;5054793;28;20528;-29
2023/08/11 07:22:01;;;;;;;10.15;5.80;;;;;;;;;;5055062;28;20523;-29
2023/08/11 07:24:27;;;;;;;9.63;5.90;;;;;;;;;;5054758;28;20096;-29
2023/08/11 07:26:52;;;;;;;10.03;5.97;;;;;;;;;;5054914;28;20029;-29
2023/08/11 07:29:18;;;;;;;10.20;5.67;;;;;;;;;;5054595;28;20375;-29
2023/08/11 07:31:43;;;;;;;10.18;5.50;;;;;;;;;;5054447;28;20013;-29
2023/08/11 07:34:09;;;;;;;10.23;5.82;;;;;;;;;;5054465;28;20036;-29
2023/08/11 07:36:34;;;;;;;9.93;5.50;;;;;;;;;;5054484;28;20013;-29
2023/08/11 07:38:59;;;;;;;8.47;4.80;;;;;;;;;;5054330;28;20251;-27
2023/08/11 07:41:24;;;;;;;9.87;5.70;;;;;;;;;;5054393;28;20053;-27
2023/08/11 07:43:49;;;;;;;8.83;5.70;;;;;;;;;;5054822;28;20435;-29
2023/08/11 07:46:15;;;;;;;9.77;5.70;;;;;;;;;;5054295;28;20384;-28
2023/08/11 07:48:40;;;;;;;10.30;5.37;;;;;;;;;;5054176;28;20029;-29
2023/08/11 07:51:05;;;;;;;9.87;5.40;;;;;;;;;;5054180;28;20367;-28
2023/08/11 07:53:31;;;;;;;9.13;5.40;;;;;;;;;;5054036;28;20112;-28
2023/08/11 07:55:57;;;;;;;11.00;5.47;;;;;;;;;;5054328;28;20013;-28
2023/08/11 07:58:22;;;;;;;11.63;5.47;;;;;;;;;;5054302;28;20044;-28
2023/08/11 08:00:47;;;;;;;11.32;5.47;;;;;;;;;;5054033;28;20405;-29
2023/08/11 08:03:13;;;;;;;11.90;5.10;;;;;;;;;;5054127;28;20021;-29
2023/08/11 08:05:38;;;;;;;14.63;5.78;;;;;;;;;;5053643;28;20271;-29
2023/08/11 08:08:03;;;;;;;15.38;5.53;;;;;;;;;;5053875;28;20084;-29
2023/08/11 08:10:29;;;;;;;17.40;5.80;;;;;;;;;;5053641;28;20045;-28
2023/08/11 08:12:54;;;;;;;10.52;5.43;;;;;;;;;;5054245;28;20275;-29
2023/08/11 08:15:19;;;;;;;10.77;5.17;;;;;;;;;;5053776;28;20383;-28
2023/08/11 08:17:45;;;;;;;11.82;5.22;;;;;;;;;;5053999;28;20066;-29
2023/08/11 08:20:13;;;;;;;12.05;4.90;;;;;;;;;;5053752;28;20372;-29
2023/08/11 08:22:38;;;;;;;9.20;4.82;;;;;;;;;;5053697;28;20078;-29
2023/08/11 08:25:07;;;;;;;10.32;4.75;;;;;;;;;;5053618;28;20025;-29
2023/08/11 08:27:36;;;;;;;9.35;4.78;;;;;;;;;;5053686;28;20482;-29
2023/08/11 08:30:01;;;;;;;10.00;5.00;;;;;;;;;;5053753;28;20048;-28
2023/08/11 08:32:29;;;;;;;9.65;4.60;;;;;;;;;;5053952;28;20021;-28
2023/08/11 08:34:54;;;;;;;14.15;4.50;;;;;;;;;;5052199;28;20017;-29
2023/08/11 08:37:19;;;;;;;11.73;4.87;;;;;;;;;;5053397;28;20460;-28
2023/08/11 08:39:45;;;;;;;9.57;4.60;;;;;;;;;;5053421;28;20017;-28
2023/08/11 08:42:11;;;;;;;8.68;4.25;;;;;;;;;;5052423;28;20024;-28
2023/08/11 08:44:36;;;;;;;9.38;4.18;;;;;;;;;;5053352;28;20021;-28
2023/08/11 08:47:04;;;;;;;8.48;3.90;;;;;;;;;;5053275;28;20456;-29
2023/08/11 08:49:29;;;;;;;8.55;4.10;;;;;;;;;;5054315;28;20017;-28
2023/08/11 08:51:55;;;;;;;10.57;4.20;;;;;;;;;;5053519;28;20474;-28
2023/08/11 08:54:21;;;;;;;6.55;3.60;;;;;;;;;;5053094;28;20028;-28
2023/08/11 08:56:46;;;;;;;10.50;3.90;;;;;;;;;;5053126;28;20017;-28
2023/08/11 08:59:11;;;;;;;6.07;3.90;;;;;;;;;;5053253;28;20023;-29
2023/08/11 09:01:37;;;;;;;7.07;3.93;;;;;;;;;;5053744;28;20020;-29
2023/08/11 09:04:03;;;;;;;10.15;4.50;;;;;;;;;;5053609;28;20025;-29
2023/08/11 09:06:29;;;;;;;10.27;3.97;;;;;;;;;;5053467;28;20104;-29
2023/08/11 09:08:54;;;;;;;11.05;4.00;;;;;;;;;;5053379;28;20051;-29
2023/08/11 09:11:21;;;;;;;15.07;3.88;;;;;;;;;;5052928;28;20117;-29
2023/08/11 09:13:46;;;;;;;7.20;4.05;;;;;;;;;;5053311;28;20037;-28
2023/08/11 09:16:14;;;;;;;7.50;3.60;;;;;;;;;;5056245;28;20440;-28
2023/08/11 09:18:39;;;;;;;11.50;4.20;;;;;;;;;;5057074;28;20021;-28
2023/08/11 09:21:05;;;;;;;14.70;3.92;;;;;;;;;;5057577;28;20070;-28
2023/08/11 09:23:32;;;;;;;7.43;3.58;;;;;;;;;;5057002;28;20048;-28
2023/08/11 09:25:57;;;;;;;8.35;4.18;;;;;;;;;;5056911;28;20021;-28
2023/08/11 09:28:22;;;;;;;10.05;3.53;;;;;;;;;;5057652;28;20368;-28
2023/08/11 09:30:48;;;;;;;11.30;3.80;;;;;;;;;;5056784;28;20021;-28
2023/08/11 09:33:13;;;;;;;8.15;3.83;;;;;;;;;;5056968;28;20357;-28
2023/08/11 09:35:38;;;;;;;8.13;3.33;;;;;;;;;;5056740;28;20489;-28
2023/08/11 09:38:04;;;;;;;6.23;3.50;;;;;;;;;;5056649;28;20013;-29
2023/08/11 09:40:31;;;;;;;8.43;3.70;;;;;;;;;;5056597;28;20063;-29
2023/08/11 09:42:56;;;;;;;11.27;3.45;;;;;;;;;;5057190;28;20025;-29
2023/08/11 09:45:23;;;;;;;9.10;3.38;;;;;;;;;;5057178;28;20032;-29
2023/08/11 09:47:48;;;;;;;7.70;3.20;;;;;;;;;;5056770;28;20049;-29
2023/08/11 09:50:14;;;;;;;10.20;3.40;;;;;;;;;;5057094;28;20079;-29
2023/08/11 09:52:39;;;;;;;5.90;3.20;;;;;;;;;;5056867;28;20528;-28
2023/08/11 09:55:08;;;;;;;5.73;3.10;;;;;;;;;;5056552;28;20021;-28
2023/08/11 09:57:35;;;;;;;15.05;3.25;;;;;;;;;;5055119;28;20259;-28
2023/08/11 10:00:00;;;;;;;13.70;3.42;;;;;;;;;;5056645;28;20021;-28
2023/08/11 10:02:28;;;;;;;19.23;3.58;;;;;;;;;;5056327;28;20075;-28
2023/08/11 10:05:03;;;;;;;7.07;3.40;;;;;;;;;;5056942;28;20025;-28
2023/08/11 10:07:33;;;;;;;9.65;3.70;;;;;;;;;;5056116;28;20024;-28
2023/08/11 10:10:00;;;;;;;6.20;3.47;;;;;;;;;;5056616;28;20079;-28
2023/08/11 10:12:25;;;;;;;8.07;3.53;;;;;;;;;;5056276;28;20420;-28
2023/08/11 10:14:51;;;;;;;6.70;2.90;;;;;;;;;;5056642;28;20147;-28
2023/08/11 10:17:16;;;;;;;8.30;3.30;;;;;;;;;;5055973;28;20013;-29
2023/08/11 10:19:41;;;;;;;11.27;3.53;;;;;;;;;;5055961;28;20021;-28
2023/08/11 10:22:07;;;;;;;7.03;3.38;;;;;;;;;;5056375;28;20102;-28
2023/08/11 10:24:36;;;;;;;6.97;3.38;;;;;;;;;;5054564;28;20021;-28
2023/08/11 10:27:01;;;;;;;7.57;3.28;;;;;;;;;;5055089;28;20028;-28
2023/08/11 10:29:27;;;;;;;7.40;3.30;;;;;;;;;;5054400;28;20013;-28
2023/08/11 10:31:54;;;;;;;5.45;3.30;;;;;;;;;;5055586;28;20103;-28
2023/08/11 10:34:21;;;;;;;11.05;3.33;;;;;;;;;;5055633;28;20017;-28
2023/08/11 10:36:46;;;;;;;6.95;3.30;;;;;;;;;;5055661;28;20029;-28
2023/08/11 10:39:16;;;;;;;4.77;3.23;;;;;;;;;;5055623;28;20024;-28
2023/08/11 10:41:44;;;;;;;5.85;3.28;;;;;;;;;;5055614;28;20302;-28
2023/08/11 10:44:09;;;;;;;8.50;3.17;;;;;;;;;;5056059;28;20107;-28
2023/08/11 10:46:35;;;;;;;7.77;3.27;;;;;;;;;;5056000;28;20436;-28
2023/08/11 10:49:03;;;;;;;8.23;3.00;;;;;;;;;;5055393;28;20247;-28
2023/08/11 10:51:32;;;;;;;6.15;2.97;;;;;;;;;;5055993;28;20028;-28
2023/08/11 10:54:01;;;;;;;6.70;2.78;;;;;;;;;;5055188;28;20020;-28
2023/08/11 10:56:28;;;;;;;5.60;3.00;;;;;;;;;;5055381;28;20013;-29
2023/08/11 10:59:03;;;;;;;4.78;2.63;;;;;;;;;;5055241;28;20016;-28
2023/08/11 11:01:28;;;;;;;5.85;2.47;;;;;;;;;;5055200;28;20021;-28
2023/08/11 11:03:54;;;;;;;4.83;3.00;;;;;;;;;;5053939;28;20469;-27
2023/08/11 11:06:21;;;;;;;5.95;2.88;;;;;;;;;;5055371;28;20024;-28
2023/08/11 11:08:46;;;;;;;10.07;3.00;;;;;;;;;;5055080;28;20028;-28
2023/08/11 11:11:11;;;;;;;5.13;2.80;;;;;;;;;;5054922;28;20041;-28
2023/08/11 11:13:36;;;;;;;6.37;3.00;;;;;;;;;;5054920;28;20468;-28
2023/08/11 11:16:01;;;;;;;11.33;2.77;;;;;;;;;;5055484;28;20025;-29
2023/08/11 11:18:27;;;;;;;5.57;2.70;;;;;;;;;;5055418;28;20103;-33
2023/08/11 11:20:52;;;;;;;7.13;2.80;;;;;;;;;;5054820;28;20479;-28
2023/08/11 11:23:18;;;;;;;6.38;2.63;;;;;;;;;;5055309;28;20496;-28
2023/08/11 11:25:43;;;;;;;8.70;2.53;;;;;;;;;;5055044;28;20048;-28
2023/08/11 11:28:11;;;;;;;6.70;3.10;;;;;;;;;;5054607;28;20263;-28
2023/08/11 11:30:36;;;;;;;6.50;2.67;;;;;;;;;;5054763;28;20021;-29
2023/08/11 11:33:02;;;;;;;5.22;2.95;;;;;;;;;;5055026;28;20101;-28
2023/08/11 11:35:27;;;;;;;8.48;2.97;;;;;;;;;;5054993;28;20589;-29
2023/08/11 11:37:52;;;;;;;5.10;2.87;;;;;;;;;;5054530;28;20021;-27
2023/08/11 11:40:17;;;;;;;7.50;2.92;;;;;;;;;;5053409;28;20382;-29
2023/08/11 11:42:43;;;;;;;7.00;3.17;;;;;;;;;;5054246;28;20032;-29
2023/08/11 11:45:09;;;;;;;7.38;3.10;;;;;;;;;;5054660;28;20025;-29
2023/08/11 11:47:34;;;;;;;5.75;2.72;;;;;;;;;;5054358;28;20475;-29
2023/08/11 11:50:04;;;;;;;10.45;3.33;;;;;;;;;;5054333;28;20100;-28
2023/08/11 11:52:29;;;;;;;14.23;3.10;;;;;;;;;;5054742;28;20368;-29
2023/08/11 11:54:54;;;;;;;5.53;2.93;;;;;;;;;;5054176;28;20020;-29
2023/08/11 11:57:20;;;;;;;7.35;3.20;;;;;;;;;;5054114;28;20024;-29
2023/08/11 11:59:48;;;;;;;5.63;3.13;;;;;;;;;;5054071;28;20031;-29
2023/08/11 12:02:16;;;;;;;7.15;3.90;;;;;;;;;;5054574;28;20086;-29
2023/08/11 12:04:45;;;;;;;7.22;3.47;;;;;;;;;;5054064;28;20464;-29
2023/08/11 12:07:26;;;;;;;6.40;3.50;;;;;;;;;;5053954;28;20100;-29
2023/08/11 12:09:52;;;;;;;9.43;3.72;;;;;;;;;;5053997;28;20021;-29
2023/08/11 12:12:17;;;;;;;5.68;3.50;;;;;;;;;;5054368;28;20017;-29
2023/08/11 12:14:42;;;;;;;9.40;4.20;;;;;;;;;;5053834;28;20020;-29
2023/08/11 12:17:08;;;;;;;11.77;3.60;;;;;;;;;;5053770;28;20254;-29
2023/08/11 12:19:33;;;;;;;10.52;4.45;;;;;;;;;;5053977;28;20017;-29
2023/08/11 12:21:58;;;;;;;11.32;4.25;;;;;;;;;;5053475;28;20379;-28
2023/08/11 12:24:23;;;;;;;11.30;4.00;;;;;;;;;;5053195;28;20082;-28
2023/08/11 12:26:49;;;;;;;8.07;4.23;;;;;;;;;;5053066;28;20259;-28
2023/08/11 12:29:14;;;;;;;8.73;4.05;;;;;;;;;;5053114;28;20689;-28
2023/08/11 12:31:39;;;;;;;9.03;3.70;;;;;;;;;;5052874;28;20028;-28
2023/08/11 12:34:05;;;;;;;14.30;4.20;;;;;;;;;;5052643;28;20479;-28
2023/08/11 12:36:30;;;;;;;9.27;5.17;;;;;;;;;;5054551;28;20103;-28
2023/08/11 12:38:55;;;;;;;10.33;4.60;;;;;;;;;;5053487;28;20255;-29
2023/08/11 12:41:20;;;;;;;9.93;3.72;;;;;;;;;;5053671;28;20103;-28
2023/08/11 12:43:46;;;;;;;11.25;4.30;;;;;;;;;;5054126;28;20028;-28
2023/08/11 12:46:11;;;;;;;4.03;2.83;;;;;;;;;;5053870;28;20021;-29
2023/08/11 12:48:36;;;;;;;8.87;4.10;;;;;;;;;;5053220;28;20396;-29
2023/08/11 12:51:01;;;;;;;8.33;4.33;;;;;;;;;;5053211;28;20029;-28
2023/08/11 12:53:26;;;;;;;13.15;3.08;;;;;;;;;;5053384;28;20060;-28
2023/08/11 12:55:52;;;;;;;7.33;2.87;;;;;;;;;;5053315;28;20361;-28
2023/08/11 12:58:18;;;;;;;4.97;2.80;;;;;;;;;;5053792;28;20258;-28
2023/08/11 13:00:43;;;;;;;5.32;2.78;;;;;;;;;;5053250;28;20020;-28
2023/08/11 13:03:09;;;;;;;4.40;2.43;;;;;;;;;;5053243;28;20491;-28
2023/08/11 13:05:34;;;;;;;6.57;2.30;;;;;;;;;;5053752;28;20025;-28
2023/08/11 13:07:59;;;;;;;7.27;2.60;;;;;;;;;;5053456;28;20437;-29
2023/08/11 13:10:25;;;;;;;6.03;2.17;;;;;;;;;;5052975;28;20504;-28
2023/08/11 13:12:50;;;;;;;6.28;2.58;;;;;;;;;;5053514;28;20418;-28
2023/08/11 13:15:16;;;;;;;4.72;2.25;;;;;;;;;;5053031;28;20039;-28
2023/08/11 13:17:44;;;;;;;6.65;2.53;;;;;;;;;;5053322;28;20021;-29
2023/08/11 13:20:09;;;;;;;5.70;2.40;;;;;;;;;;5053313;28;20031;-29
2023/08/11 13:22:35;;;;;;;6.82;3.17;;;;;;;;;;5053571;28;20439;-28
2023/08/11 13:25:00;;;;;;;5.72;3.50;;;;;;;;;;5052952;28;20135;-28
2023/08/11 13:27:26;;;;;;;10.25;3.35;;;;;;;;;;5053286;28;20017;-28
2023/08/11 13:29:51;;;;;;;10.88;3.25;;;;;;;;;;5053228;28;20448;-28
2023/08/11 13:32:16;;;;;;;5.13;3.10;;;;;;;;;;5053143;28;20104;-28
2023/08/11 13:34:41;;;;;;;15.37;3.53;;;;;;;;;;5052936;28;20460;-29
2023/08/11 13:37:06;;;;;;;11.20;3.20;;;;;;;;;;5052842;28;20017;-28
2023/08/11 13:39:33;;;;;;;11.23;2.93;;;;;;;;;;5052811;28;20045;-28
2023/08/11 13:41:58;;;;;;;5.97;2.90;;;;;;;;;;5052978;28;20626;-28
2023/08/11 13:44:23;;;;;;;14.27;2.95;;;;;;;;;;5052758;28;20017;-28
2023/08/11 13:46:48;;;;;;;11.17;3.47;;;;;;;;;;5052951;28;20029;-28
2023/08/11 13:49:14;;;;;;;9.60;3.30;;;;;;;;;;5051447;28;20351;-28
2023/08/11 13:51:39;;;;;;;10.70;3.03;;;;;;;;;;5052741;28;20393;-28
2023/08/11 13:54:05;;;;;;;8.27;2.65;;;;;;;;;;5053080;28;20048;-28
2023/08/11 13:56:33;;;;;;;14.40;2.63;;;;;;;;;;5053009;28;20027;-28
2023/08/11 13:58:58;;;;;;;9.48;3.03;;;;;;;;;;5052942;28;20082;-29
2023/08/11 14:01:24;;;;;;;6.43;2.22;;;;;;;;;;5052697;28;20025;-28
2023/08/11 14:03:49;;;;;;;9.60;3.30;;;;;;;;;;5055209;28;20074;-28
2023/08/11 14:06:14;;;;;;;9.13;2.80;;;;;;;;;;5055741;28;20031;-28
2023/08/11 14:08:39;;;;;;;6.90;2.50;;;;;;;;;;5055739;28;20039;-28
2023/08/11 14:11:05;;;;;;;5.25;2.05;;;;;;;;;;5055695;28;20040;-28
2023/08/11 14:13:30;;;;;;;11.70;3.10;;;;;;;;;;5055926;28;20031;-28
2023/08/11 14:15:56;;;;;;;11.13;2.63;;;;;;;;;;5055643;28;20092;-28
2023/08/11 14:18:21;;;;;;;9.40;2.72;;;;;;;;;;5056000;28;20742;-29
2023/08/11 14:20:46;;;;;;;8.65;2.50;;;;;;;;;;5056580;28;20021;-29
2023/08/11 14:23:12;;;;;;;9.73;2.63;;;;;;;;;;5056573;28;20071;-29
2023/08/11 14:25:37;;;;;;;9.37;2.40;;;;;;;;;;5055919;28;20507;-29